createdAt,value
2023-03-15T00:00:01.783Z,1.71
2023-03-15T00:01:01.723Z,1.77
2023-03-15T00:02:01.810Z,1.68
2023-03-15T00:03:01.651Z,1.63
2023-03-15T00:04:01.737Z,1.70
2023-03-15T00:05:01.573Z,1.66
2023-03-15T00:06:01.539Z,1.62
2023-03-15T00:07:01.512Z,1.59
2023-03-15T00:08:03.395Z,1.56
2023-03-15T00:09:01.435Z,1.53
2023-03-15T00:10:01.456Z,1.58
2023-03-15T00:11:01.344Z,1.58
2023-03-15T00:12:01.307Z,1.53
2023-03-15T00:13:01.312Z,1.60
2023-03-15T00:14:01.221Z,1.53
2023-03-15T00:15:01.190Z,1.62
2023-03-15T00:16:01.331Z,1.55
2023-03-15T00:17:01.121Z,1.66
2023-03-15T00:18:01.086Z,1.60
2023-03-15T00:19:01.053Z,1.62
2023-03-15T00:20:01.010Z,1.62
2023-03-15T00:21:00.960Z,1.63
2023-03-15T00:22:00.998Z,1.74
2023-03-15T00:23:00.883Z,1.67
2023-03-15T00:24:00.880Z,1.76
2023-03-15T00:25:00.832Z,1.73
2023-03-15T00:26:00.774Z,1.67
2023-03-15T00:27:00.730Z,1.67
2023-03-15T00:28:00.756Z,1.62
2023-03-15T00:29:00.651Z,1.60
2023-03-15T00:30:00.609Z,1.60
2023-03-15T00:31:00.603Z,1.66
2023-03-15T00:32:00.534Z,1.67
2023-03-15T00:33:00.503Z,1.70
2023-03-15T00:34:00.543Z,1.71
2023-03-15T00:35:00.451Z,1.71
2023-03-15T00:36:00.402Z,1.76
2023-03-15T00:37:00.343Z,1.70
2023-03-15T00:38:00.310Z,1.73
2023-03-15T00:39:00.283Z,1.80
2023-03-15T00:40:00.281Z,1.70
2023-03-15T00:41:00.183Z,1.71
2023-03-15T00:42:00.211Z,1.68
2023-03-15T00:43:00.117Z,1.73
2023-03-15T00:44:00.109Z,1.70
2023-03-15T00:45:00.034Z,1.70
2023-03-15T00:46:00.001Z,1.70
2023-03-15T00:47:00.017Z,1.73
2023-03-15T00:47:59.936Z,1.74
2023-03-15T00:48:59.882Z,1.71
2023-03-15T00:49:59.850Z,1.73
2023-03-15T00:50:59.831Z,1.77
2023-03-15T00:51:59.830Z,1.74
2023-03-15T00:52:59.735Z,1.78
2023-03-15T00:53:59.686Z,1.74
2023-03-15T00:54:59.654Z,1.77
2023-03-15T00:55:59.610Z,1.76
2023-03-15T00:56:59.568Z,1.74
2023-03-15T00:57:59.594Z,1.74
2023-03-15T00:58:59.500Z,1.71
2023-03-15T00:59:59.518Z,1.71
2023-03-15T01:00:59.425Z,1.76
2023-03-15T01:02:03.125Z,1.81
2023-03-15T01:03:00.255Z,1.70
2023-03-15T01:03:59.404Z,1.70
2023-03-15T01:04:59.266Z,1.78
2023-03-15T01:05:59.215Z,1.74
2023-03-15T01:06:59.192Z,1.76
2023-03-15T01:07:59.147Z,1.71
2023-03-15T01:08:59.186Z,1.73
2023-03-15T01:09:59.079Z,1.71
2023-03-15T01:10:59.036Z,1.76
2023-03-15T01:11:58.984Z,1.80
2023-03-15T01:12:58.945Z,1.76
2023-03-15T01:13:58.917Z,1.67
2023-03-15T01:14:58.935Z,1.74
2023-03-15T01:15:58.864Z,1.71
2023-03-15T01:16:58.796Z,1.70
2023-03-15T01:17:58.754Z,1.62
2023-03-15T01:18:58.739Z,1.62
2023-03-15T01:19:58.680Z,1.63
2023-03-15T01:20:58.712Z,1.55
2023-03-15T01:21:58.607Z,1.58
2023-03-15T01:22:58.569Z,1.66
2023-03-15T01:23:58.525Z,1.58
2023-03-15T01:24:58.521Z,1.60
2023-03-15T01:25:58.452Z,1.58
2023-03-15T01:26:58.465Z,1.50
2023-03-15T01:27:58.376Z,1.52
2023-03-15T01:28:58.336Z,1.55
2023-03-15T01:29:58.302Z,1.55
2023-03-15T01:30:59.865Z,1.55
2023-03-15T01:31:58.215Z,1.44
2023-03-15T01:32:58.250Z,1.50
2023-03-15T01:33:58.222Z,1.48
2023-03-15T01:34:58.106Z,1.48
2023-03-15T01:35:58.083Z,1.44
2023-03-15T01:36:58.024Z,1.40
2023-03-15T01:37:57.987Z,1.42
2023-03-15T01:38:58.011Z,1.42
2023-03-15T01:39:57.905Z,1.45
2023-03-15T01:40:57.881Z,1.40
2023-03-15T01:41:57.837Z,1.45
2023-03-15T01:42:57.790Z,1.44
2023-03-15T01:43:57.752Z,1.30
2023-03-15T01:44:57.774Z,1.31
2023-03-15T01:45:57.676Z,1.30
2023-03-15T01:46:57.701Z,1.40
2023-03-15T01:47:57.617Z,1.31
2023-03-15T01:48:57.561Z,1.42
2023-03-15T01:49:57.524Z,1.48
2023-03-15T01:50:57.553Z,1.45
2023-03-15T01:51:57.445Z,1.40
2023-03-15T01:52:57.406Z,1.30
2023-03-15T01:53:57.372Z,1.35
2023-03-15T01:54:57.332Z,1.26
2023-03-15T01:55:57.291Z,1.28
2023-03-15T01:56:57.331Z,1.26
2023-03-15T01:57:57.217Z,1.17
2023-03-15T01:58:57.164Z,1.20
2023-03-15T01:59:57.123Z,1.17
2023-03-15T02:00:57.145Z,1.12
2023-03-15T02:01:57.192Z,1.14
2023-03-15T02:02:57.014Z,1.05
2023-03-15T02:03:56.977Z,1.08
2023-03-15T02:04:56.944Z,1.02
2023-03-15T02:05:56.919Z,0.96
2023-03-15T02:06:56.996Z,0.98
2023-03-15T02:07:56.886Z,0.94
2023-03-15T02:08:56.777Z,0.96
2023-03-15T02:09:56.745Z,1.05
2023-03-15T02:10:56.698Z,0.92
2023-03-15T02:11:56.680Z,1.10
2023-03-15T02:12:56.636Z,0.92
2023-03-15T02:13:56.667Z,0.91
2023-03-15T02:14:56.549Z,1.08
2023-03-15T02:15:56.519Z,0.95
2023-03-15T02:16:56.468Z,0.99
2023-03-15T02:17:57.242Z,0.94
2023-03-15T02:18:56.398Z,0.96
2023-03-15T02:19:56.432Z,0.88
2023-03-15T02:20:56.317Z,0.94
2023-03-15T02:21:56.271Z,0.88
2023-03-15T02:22:56.250Z,0.81
2023-03-15T02:23:56.221Z,0.78
2023-03-15T02:24:56.161Z,0.74
2023-03-15T02:25:56.189Z,0.84
2023-03-15T02:26:56.114Z,0.83
2023-03-15T02:27:56.040Z,0.83
2023-03-15T02:28:56.022Z,0.92
2023-03-15T02:29:55.988Z,0.94
2023-03-15T02:30:55.941Z,0.88
2023-03-15T02:31:56.004Z,0.92
2023-03-15T02:32:55.868Z,0.91
2023-03-15T02:33:55.830Z,0.96
2023-03-15T02:34:55.780Z,0.94
2023-03-15T02:35:55.818Z,0.88
2023-03-15T02:36:55.720Z,0.80
2023-03-15T02:37:55.712Z,0.78
2023-03-15T02:38:55.621Z,0.81
2023-03-15T02:39:55.611Z,0.77
2023-03-15T02:40:55.599Z,0.80
2023-03-15T02:41:55.508Z,0.70
2023-03-15T02:42:55.552Z,0.83
2023-03-15T02:43:55.427Z,0.74
2023-03-15T02:44:55.382Z,0.69
2023-03-15T02:45:55.439Z,0.69
2023-03-15T02:46:55.319Z,0.69
2023-03-15T02:47:55.276Z,0.69
2023-03-15T02:48:55.226Z,0.66
2023-03-15T02:49:55.196Z,0.66
2023-03-15T02:50:55.228Z,0.70
2023-03-15T02:51:55.190Z,0.68
2023-03-15T02:52:55.082Z,0.68
2023-03-15T02:53:55.044Z,0.63
2023-03-15T02:54:55.011Z,0.65
2023-03-15T02:55:54.971Z,0.50
2023-03-15T02:56:54.983Z,0.60
2023-03-15T02:57:54.879Z,0.63
2023-03-15T02:58:54.866Z,0.58
2023-03-15T02:59:54.810Z,0.59
2023-03-15T03:00:54.839Z,0.73
2023-03-15T03:01:54.786Z,0.68
2023-03-15T03:02:54.688Z,0.65
2023-03-15T03:03:54.697Z,0.66
2023-03-15T03:04:54.624Z,0.65
2023-03-15T03:05:54.572Z,0.63
2023-03-15T03:06:54.528Z,0.76
2023-03-15T03:07:54.555Z,0.66
2023-03-15T03:08:54.461Z,0.68
2023-03-15T03:09:54.487Z,0.70
2023-03-15T03:10:54.381Z,0.65
2023-03-15T03:11:54.346Z,0.73
2023-03-15T03:12:54.306Z,0.68
2023-03-15T03:13:54.316Z,0.70
2023-03-15T03:14:54.218Z,0.78
2023-03-15T03:15:54.190Z,0.78
2023-03-15T03:16:54.170Z,0.80
2023-03-15T03:17:54.110Z,0.66
2023-03-15T03:18:54.132Z,0.76
2023-03-15T03:19:54.025Z,0.66
2023-03-15T03:20:53.989Z,0.63
2023-03-15T03:21:53.941Z,0.60
2023-03-15T03:22:53.907Z,0.50
2023-03-15T03:23:53.874Z,0.58
2023-03-15T03:24:53.908Z,0.50
2023-03-15T03:25:53.787Z,0.60
2023-03-15T03:26:53.745Z,0.62
2023-03-15T03:27:53.720Z,0.66
2023-03-15T03:28:53.749Z,0.77
2023-03-15T03:29:53.641Z,0.73
2023-03-15T03:30:53.674Z,0.73
2023-03-15T03:31:53.558Z,0.70
2023-03-15T03:32:53.555Z,0.63
2023-03-15T03:33:53.476Z,0.65
2023-03-15T03:34:53.435Z,0.69
2023-03-15T03:35:53.411Z,0.70
2023-03-15T03:36:53.453Z,0.68
2023-03-15T03:37:53.320Z,0.66
2023-03-15T03:38:53.292Z,0.65
2023-03-15T03:39:53.263Z,0.59
2023-03-15T03:40:53.194Z,0.59
2023-03-15T03:41:53.161Z,0.50
2023-03-15T03:42:53.193Z,0.47
2023-03-15T03:43:53.102Z,0.49
2023-03-15T03:44:53.036Z,0.56
2023-03-15T03:45:53.091Z,0.44
2023-03-15T03:46:52.977Z,0.49
2023-03-15T03:47:52.928Z,0.50
2023-03-15T03:48:52.951Z,0.49
2023-03-15T03:49:52.847Z,0.56
2023-03-15T03:50:52.818Z,0.66
2023-03-15T03:51:52.774Z,0.50
2023-03-15T03:52:52.759Z,0.56
2023-03-15T03:53:52.689Z,0.60
2023-03-15T03:54:52.709Z,0.59
2023-03-15T03:55:52.622Z,0.65
2023-03-15T03:56:52.583Z,0.68
2023-03-15T03:57:52.544Z,0.52
2023-03-15T03:58:52.509Z,0.55
2023-03-15T03:59:52.526Z,0.56
2023-03-15T04:00:52.420Z,0.58
2023-03-15T04:01:52.379Z,0.52
2023-03-15T04:02:52.386Z,0.60
2023-03-15T04:03:52.317Z,0.52
2023-03-15T04:04:52.311Z,0.47
2023-03-15T04:05:52.397Z,0.47
2023-03-15T04:06:52.195Z,0.55
2023-03-15T04:07:52.147Z,0.44
2023-03-15T04:08:52.108Z,0.39
2023-03-15T04:09:52.076Z,0.46
2023-03-15T04:10:52.041Z,0.32
2023-03-15T04:11:52.061Z,0.39
2023-03-15T04:12:51.952Z,0.29
2023-03-15T04:13:51.907Z,0.32
2023-03-15T04:14:51.920Z,0.29
2023-03-15T04:15:51.908Z,0.28
2023-03-15T04:16:51.804Z,0.29
2023-03-15T04:17:51.769Z,0.29
2023-03-15T04:18:51.711Z,0.16
2023-03-15T04:19:51.755Z,0.15
2023-03-15T04:20:51.632Z,0.18
2023-03-15T04:21:51.594Z,0.19
2023-03-15T04:22:51.549Z,0.12
2023-03-15T04:23:51.521Z,0.18
2023-03-15T04:24:51.479Z,0.07
2023-03-15T04:25:51.503Z,0.07
2023-03-15T04:26:51.417Z,0.10
2023-03-15T04:27:51.364Z,0.03
2023-03-15T04:28:51.325Z,0.04
2023-03-15T04:29:51.298Z,0.04
2023-03-15T04:30:52.323Z,0.04
2023-03-15T04:31:51.232Z,0.07
2023-03-15T04:32:51.222Z,0.05
2023-03-15T04:33:51.133Z,0.00
2023-03-15T04:34:51.099Z,0.03
2023-03-15T04:35:51.129Z,0.00
2023-03-15T04:36:51.026Z,0.04
2023-03-15T04:37:50.975Z,-0.03
2023-03-15T04:38:50.933Z,-0.06
2023-03-15T04:39:50.897Z,-0.03
2023-03-15T04:40:50.868Z,-0.03
2023-03-15T04:41:50.896Z,-0.07
2023-03-15T04:42:50.787Z,-0.13
2023-03-15T04:43:50.748Z,-0.10
2023-03-15T04:44:50.718Z,-0.15
2023-03-15T04:45:50.666Z,-0.26
2023-03-15T04:46:50.681Z,-0.21
2023-03-15T04:47:50.684Z,-0.17
2023-03-15T04:48:50.605Z,-0.35
2023-03-15T04:49:50.511Z,-0.25
2023-03-15T04:50:50.477Z,-0.34
2023-03-15T04:51:50.438Z,-0.23
2023-03-15T04:52:50.390Z,-0.38
2023-03-15T04:53:50.414Z,-0.32
2023-03-15T04:54:50.325Z,-0.29
2023-03-15T04:55:50.282Z,-0.28
2023-03-15T04:56:50.238Z,-0.35
2023-03-15T04:57:50.211Z,-0.31
2023-03-15T04:58:50.169Z,-0.25
2023-03-15T04:59:50.178Z,-0.35
2023-03-15T05:00:50.160Z,-0.23
2023-03-15T05:01:50.088Z,-0.21
2023-03-15T05:02:50.086Z,-0.21
2023-03-15T05:03:49.973Z,-0.23
2023-03-15T05:04:49.937Z,-0.18
2023-03-15T05:05:49.890Z,-0.23
2023-03-15T05:06:49.855Z,-0.23
2023-03-15T05:07:49.812Z,-0.14
2023-03-15T05:08:49.821Z,-0.06
2023-03-15T05:09:49.732Z,-0.13
2023-03-15T05:10:49.692Z,-0.03
2023-03-15T05:11:49.649Z,-0.07
2023-03-15T05:12:49.647Z,-0.06
2023-03-15T05:13:49.655Z,-0.08
2023-03-15T05:14:49.597Z,-0.03
2023-03-15T05:15:49.496Z,-0.03
2023-03-15T05:16:49.454Z,-0.02
2023-03-15T05:17:49.444Z,-0.07
2023-03-15T05:18:49.442Z,-0.02
2023-03-15T05:19:49.344Z,0.03
2023-03-15T05:20:49.304Z,0.10
2023-03-15T05:21:49.291Z,0.11
2023-03-15T05:22:49.235Z,0.15
2023-03-15T05:23:49.189Z,0.19
2023-03-15T05:24:49.196Z,0.29
2023-03-15T05:25:49.105Z,0.28
2023-03-15T05:26:49.063Z,0.40
2023-03-15T05:27:49.028Z,0.46
2023-03-15T05:28:48.994Z,0.44
2023-03-15T05:29:48.951Z,0.59
2023-03-15T05:30:48.975Z,0.66
2023-03-15T05:31:48.938Z,0.70
2023-03-15T05:32:48.899Z,0.74
2023-03-15T05:33:48.821Z,0.76
2023-03-15T05:34:48.756Z,0.80
2023-03-15T05:35:48.791Z,0.88
2023-03-15T05:36:48.748Z,0.98
2023-03-15T05:37:48.628Z,1.04
2023-03-15T05:38:48.602Z,1.20
2023-03-15T05:39:48.582Z,1.30
2023-03-15T05:40:48.523Z,1.28
2023-03-15T05:41:48.497Z,1.48
2023-03-15T05:42:48.503Z,1.56
2023-03-15T05:43:48.409Z,1.60
2023-03-15T05:44:48.416Z,1.55
2023-03-15T05:45:48.437Z,1.58
2023-03-15T05:46:48.283Z,1.66
2023-03-15T05:47:48.295Z,1.63
2023-03-15T05:48:48.213Z,1.70
2023-03-15T05:49:48.184Z,1.63
2023-03-15T05:50:48.136Z,1.67
2023-03-15T05:51:48.094Z,1.78
2023-03-15T05:52:48.071Z,1.70
2023-03-15T05:53:48.082Z,1.67
2023-03-15T05:54:48.008Z,1.76
2023-03-15T05:55:47.954Z,1.76
2023-03-15T05:56:47.909Z,1.78
2023-03-15T05:57:47.899Z,1.76
2023-03-15T05:58:47.869Z,1.85
2023-03-15T05:59:47.830Z,1.91
2023-03-15T06:00:47.952Z,1.97
2023-03-15T06:01:47.710Z,1.85
2023-03-15T06:02:47.675Z,1.95
2023-03-15T06:03:47.690Z,1.99
2023-03-15T06:04:47.656Z,2.07
2023-03-15T06:05:47.558Z,2.11
2023-03-15T06:06:47.550Z,2.20
2023-03-15T06:07:47.480Z,2.18
2023-03-15T06:08:47.452Z,2.31
2023-03-15T06:09:47.406Z,2.25
2023-03-15T06:10:47.423Z,2.22
2023-03-15T06:11:47.325Z,2.18
2023-03-15T06:12:47.294Z,2.22
2023-03-15T06:13:47.242Z,2.28
2023-03-15T06:14:47.208Z,2.22
2023-03-15T06:15:47.220Z,2.39
2023-03-15T06:16:47.196Z,2.35
2023-03-15T06:17:47.109Z,2.36
2023-03-15T06:18:47.070Z,2.43
2023-03-15T06:19:47.028Z,2.50
2023-03-15T06:20:46.984Z,2.61
2023-03-15T06:21:46.993Z,2.64
2023-03-15T06:22:46.917Z,2.72
2023-03-15T06:23:46.864Z,2.75
2023-03-15T06:24:46.828Z,3.00
2023-03-15T06:25:46.790Z,2.97
2023-03-15T06:26:46.750Z,3.05
2023-03-15T06:27:46.835Z,3.00
2023-03-15T06:28:46.685Z,3.03
2023-03-15T06:29:46.665Z,3.10
2023-03-15T06:30:46.634Z,3.18
2023-03-15T06:31:46.568Z,3.44
2023-03-15T06:32:46.581Z,3.50
2023-03-15T06:33:46.584Z,3.44
2023-03-15T06:34:46.471Z,3.40
2023-03-15T06:35:46.458Z,3.37
2023-03-15T06:36:46.381Z,3.29
2023-03-15T06:37:46.347Z,3.44
2023-03-15T06:38:46.315Z,3.37
2023-03-15T06:39:46.330Z,3.48
2023-03-15T06:40:46.233Z,3.55
2023-03-15T06:41:46.286Z,3.56
2023-03-15T06:42:46.174Z,3.62
2023-03-15T06:43:46.137Z,3.70
2023-03-15T06:44:46.084Z,3.65
2023-03-15T06:45:46.129Z,3.60
2023-03-15T06:46:46.012Z,3.65
2023-03-15T06:47:45.970Z,3.78
2023-03-15T06:48:45.940Z,3.95
2023-03-15T06:49:45.899Z,3.98
2023-03-15T06:50:47.623Z,4.05
2023-03-15T06:51:45.909Z,4.05
2023-03-15T06:52:45.792Z,4.04
2023-03-15T06:53:45.753Z,3.95
2023-03-15T06:54:45.717Z,3.99
2023-03-15T06:55:45.689Z,3.87
2023-03-15T06:56:45.649Z,3.86
2023-03-15T06:57:45.870Z,3.84
2023-03-15T06:58:45.561Z,3.91
2023-03-15T06:59:45.531Z,4.05
2023-03-15T07:00:45.510Z,4.12
2023-03-15T07:01:45.524Z,4.34
2023-03-15T07:02:45.549Z,4.48
2023-03-15T07:03:45.375Z,4.55
2023-03-15T07:04:45.359Z,4.56
2023-03-15T07:05:45.303Z,4.58
2023-03-15T07:06:45.292Z,4.59
2023-03-15T07:07:45.251Z,4.68
2023-03-15T07:08:45.264Z,4.48
2023-03-15T07:09:45.162Z,4.45
2023-03-15T07:10:45.130Z,4.44
2023-03-15T07:11:45.089Z,4.37
2023-03-15T07:12:45.056Z,4.48
2023-03-15T07:13:45.026Z,4.44
2023-03-15T07:14:45.046Z,4.48
2023-03-15T07:15:44.977Z,4.42
2023-03-15T07:16:44.906Z,4.49
2023-03-15T07:17:44.873Z,4.42
2023-03-15T07:18:44.840Z,4.44
2023-03-15T07:19:55.765Z,4.38
2023-03-15T07:20:44.841Z,4.40
2023-03-15T07:21:44.719Z,4.35
2023-03-15T07:22:44.693Z,4.26
2023-03-15T07:23:44.657Z,4.38
2023-03-15T07:24:44.627Z,4.35
2023-03-15T07:25:54.352Z,4.35
2023-03-15T07:26:44.604Z,4.42
2023-03-15T07:27:45.144Z,4.49
2023-03-15T07:28:44.463Z,4.41
2023-03-15T07:29:44.439Z,4.52
2023-03-15T07:30:44.406Z,4.56
2023-03-15T07:31:44.356Z,4.58
2023-03-15T07:32:44.481Z,4.77
2023-03-15T07:33:44.290Z,4.77
2023-03-15T07:34:44.248Z,4.86
2023-03-15T07:35:44.266Z,4.89
2023-03-15T07:36:44.177Z,4.75
2023-03-15T07:37:44.829Z,4.92
2023-03-15T07:38:44.180Z,4.89
2023-03-15T07:39:44.083Z,4.89
2023-03-15T07:40:44.033Z,4.90
2023-03-15T07:41:44.001Z,5.00
2023-03-15T07:42:43.967Z,4.97
2023-03-15T07:43:43.924Z,4.93
2023-03-15T07:44:43.960Z,5.05
2023-03-15T07:45:43.838Z,5.12
2023-03-15T07:46:43.910Z,4.94
2023-03-15T07:47:43.765Z,4.93
2023-03-15T07:48:43.767Z,5.10
2023-03-15T07:49:43.712Z,5.14
2023-03-15T07:50:43.721Z,5.25
2023-03-15T07:51:43.635Z,5.26
2023-03-15T07:52:43.599Z,5.33
2023-03-15T07:53:43.551Z,5.41
2023-03-15T07:54:43.522Z,5.47
2023-03-15T07:55:43.487Z,5.48
2023-03-15T07:56:43.515Z,5.41
2023-03-15T07:57:43.424Z,5.53
2023-03-15T07:58:43.425Z,5.41
2023-03-15T07:59:43.330Z,5.51
2023-03-15T08:00:43.317Z,5.29
2023-03-15T08:01:43.317Z,5.23
2023-03-15T08:02:43.340Z,5.17
2023-03-15T08:03:43.206Z,5.14
2023-03-15T08:04:43.160Z,5.17
2023-03-15T08:05:43.130Z,5.35
2023-03-15T08:06:43.085Z,5.38
2023-03-15T08:07:43.055Z,5.44
2023-03-15T08:08:43.068Z,5.39
2023-03-15T08:09:42.984Z,5.39
2023-03-15T08:10:42.945Z,5.32
2023-03-15T08:11:44.648Z,5.32
2023-03-15T08:12:42.867Z,5.36
2023-03-15T08:13:42.900Z,5.43
2023-03-15T08:14:42.873Z,5.38
2023-03-15T08:15:42.776Z,5.44
2023-03-15T08:16:42.811Z,5.48
2023-03-15T08:17:42.693Z,5.36
2023-03-15T08:18:42.661Z,5.38
2023-03-15T08:19:42.643Z,5.48
2023-03-15T08:20:42.664Z,5.46
2023-03-15T08:21:42.554Z,5.38
2023-03-15T08:22:42.518Z,5.35
2023-03-15T08:23:42.484Z,5.39
2023-03-15T08:24:42.448Z,5.41
2023-03-15T08:25:42.460Z,5.43
2023-03-15T08:26:42.437Z,5.48
2023-03-15T08:27:42.345Z,5.59
2023-03-15T08:28:42.315Z,5.71
2023-03-15T08:29:42.273Z,5.69
2023-03-15T08:30:42.234Z,5.87
2023-03-15T08:31:42.203Z,6.01
2023-03-15T08:32:42.250Z,6.01
2023-03-15T08:33:42.120Z,6.05
2023-03-15T08:34:42.092Z,6.16
2023-03-15T08:35:42.096Z,6.22
2023-03-15T08:36:42.110Z,6.05
2023-03-15T08:37:41.986Z,6.14
2023-03-15T08:38:41.997Z,6.11
2023-03-15T08:39:41.905Z,6.05
2023-03-15T08:40:41.874Z,6.05
2023-03-15T08:41:41.840Z,5.98
2023-03-15T08:42:41.798Z,5.98
2023-03-15T08:43:41.768Z,5.97
2023-03-15T08:44:41.795Z,5.97
2023-03-15T08:45:59.824Z,5.86
2023-03-15T08:46:41.744Z,6.04
2023-03-15T08:47:41.630Z,6.20
2023-03-15T08:48:41.596Z,6.26
2023-03-15T08:49:41.574Z,6.36
2023-03-15T08:50:41.578Z,6.26
2023-03-15T08:51:41.483Z,6.19
2023-03-15T08:52:41.452Z,6.12
2023-03-15T08:53:41.513Z,6.26
2023-03-15T08:54:41.388Z,6.30
2023-03-15T08:55:41.349Z,6.31
2023-03-15T08:56:41.360Z,6.33
2023-03-15T08:57:41.273Z,6.17
2023-03-15T08:58:41.244Z,6.01
2023-03-15T08:59:41.202Z,5.84
2023-03-15T09:00:41.193Z,5.82
2023-03-15T09:01:41.140Z,5.72
2023-03-15T09:02:41.184Z,5.71
2023-03-15T09:03:41.056Z,5.79
2023-03-15T09:04:41.104Z,5.93
2023-03-15T09:05:41.103Z,5.89
2023-03-15T09:06:40.962Z,5.91
2023-03-15T09:07:40.928Z,5.93
2023-03-15T09:08:40.953Z,5.86
2023-03-15T09:09:40.853Z,5.82
2023-03-15T09:10:40.815Z,5.76
2023-03-15T09:11:40.847Z,6.01
2023-03-15T09:12:40.755Z,6.16
2023-03-15T09:13:40.708Z,6.31
2023-03-15T09:14:40.730Z,6.28
2023-03-15T09:15:40.628Z,6.28
2023-03-15T09:16:40.631Z,6.33
2023-03-15T09:17:40.570Z,6.46
2023-03-15T09:18:40.538Z,6.63
2023-03-15T09:19:40.517Z,6.74
2023-03-15T09:20:40.522Z,6.85
2023-03-15T09:21:40.813Z,7.15
2023-03-15T09:22:40.399Z,7.10
2023-03-15T09:23:40.366Z,7.23
2023-03-15T09:24:40.330Z,7.42
2023-03-15T09:25:40.342Z,7.40
2023-03-15T09:26:40.255Z,7.35
2023-03-15T09:27:40.219Z,7.17
2023-03-15T09:28:40.190Z,7.10
2023-03-15T09:29:40.156Z,7.23
2023-03-15T09:30:40.198Z,7.20
2023-03-15T09:31:40.086Z,7.32
2023-03-15T09:32:40.105Z,7.21
2023-03-15T09:33:40.016Z,7.39
2023-03-15T09:34:41.846Z,7.48
2023-03-15T09:35:40.042Z,7.48
2023-03-15T09:36:39.912Z,7.42
2023-03-15T09:37:39.878Z,7.47
2023-03-15T09:38:39.847Z,7.53
2023-03-15T09:39:39.814Z,7.48
2023-03-15T09:40:39.794Z,7.54
2023-03-15T09:41:39.789Z,7.60
2023-03-15T09:42:39.702Z,7.61
2023-03-15T09:43:39.667Z,7.33
2023-03-15T09:44:39.633Z,7.07
2023-03-15T09:45:39.612Z,6.89
2023-03-15T09:46:42.097Z,6.87
2023-03-15T09:47:39.606Z,6.88
2023-03-15T09:48:39.507Z,6.97
2023-03-15T09:49:39.457Z,6.84
2023-03-15T09:50:39.435Z,6.64
2023-03-15T09:51:39.413Z,6.79
2023-03-15T09:52:39.362Z,6.81
2023-03-15T09:53:39.400Z,6.97
2023-03-15T09:54:39.305Z,7.24
2023-03-15T09:55:39.264Z,7.25
2023-03-15T09:56:39.226Z,7.35
2023-03-15T09:57:39.233Z,7.42
2023-03-15T09:58:39.157Z,7.56
2023-03-15T09:59:39.191Z,7.60
2023-03-15T10:00:39.173Z,7.60
2023-03-15T10:01:39.090Z,7.67
2023-03-15T10:02:39.048Z,7.47
2023-03-15T10:03:39.041Z,7.38
2023-03-15T10:04:38.979Z,7.35
2023-03-15T10:05:38.976Z,7.24
2023-03-15T10:06:38.885Z,7.32
2023-03-15T10:07:38.873Z,7.10
2023-03-15T10:08:38.867Z,6.84
2023-03-15T10:09:38.816Z,6.66
2023-03-15T10:10:38.787Z,6.41
2023-03-15T10:11:38.722Z,6.31
2023-03-15T10:12:38.682Z,6.14
2023-03-15T10:13:38.703Z,5.93
2023-03-15T10:14:38.599Z,5.97
2023-03-15T10:15:38.600Z,5.94
2023-03-15T10:16:38.548Z,5.98
2023-03-15T10:17:38.529Z,5.94
2023-03-15T10:18:38.465Z,5.94
2023-03-15T10:19:38.493Z,5.94
2023-03-15T10:20:38.405Z,5.99
2023-03-15T10:21:38.369Z,6.12
2023-03-15T10:22:38.332Z,6.12
2023-03-15T10:23:38.288Z,6.09
2023-03-15T10:24:38.266Z,6.07
2023-03-15T10:25:38.285Z,6.07
2023-03-15T10:26:38.190Z,6.02
2023-03-15T10:27:38.146Z,6.11
2023-03-15T10:28:38.120Z,6.02
2023-03-15T10:29:38.308Z,6.12
2023-03-15T10:30:38.039Z,6.14
2023-03-15T10:31:44.683Z,6.26
2023-03-15T10:32:38.026Z,6.33
2023-03-15T10:33:37.946Z,6.45
2023-03-15T10:34:37.961Z,6.74
2023-03-15T10:35:37.900Z,6.92
2023-03-15T10:36:37.828Z,6.95
2023-03-15T10:37:37.786Z,7.10
2023-03-15T10:38:37.768Z,7.05
2023-03-15T10:39:37.784Z,7.05
2023-03-15T10:40:37.682Z,7.03
2023-03-15T10:41:37.639Z,7.10
2023-03-15T10:42:39.840Z,7.17
2023-03-15T10:43:37.574Z,7.14
2023-03-15T10:44:37.586Z,7.07
2023-03-15T10:45:37.504Z,7.11
2023-03-15T10:46:37.491Z,7.05
2023-03-15T10:47:39.559Z,6.99
2023-03-15T10:48:37.397Z,6.95
2023-03-15T10:49:37.365Z,6.85
2023-03-15T10:50:37.388Z,6.77
2023-03-15T10:51:37.292Z,6.77
2023-03-15T10:52:37.260Z,6.72
2023-03-15T10:53:37.223Z,6.84
2023-03-15T10:54:37.194Z,6.93
2023-03-15T10:55:37.164Z,6.97
2023-03-15T10:56:37.174Z,6.96
2023-03-15T10:57:37.084Z,6.89
2023-03-15T10:58:37.055Z,6.87
2023-03-15T10:59:37.016Z,6.77
2023-03-15T11:00:37.004Z,6.84
2023-03-15T11:01:36.993Z,6.88
2023-03-15T11:02:36.955Z,6.95
2023-03-15T11:03:36.867Z,7.02
2023-03-15T11:04:36.843Z,7.06
2023-03-15T11:05:36.845Z,7.10
2023-03-15T11:06:36.788Z,7.10
2023-03-15T11:07:36.761Z,7.28
2023-03-15T11:08:36.769Z,7.60
2023-03-15T11:09:36.697Z,7.75
2023-03-15T11:10:36.627Z,7.94
2023-03-15T11:11:36.631Z,8.06
2023-03-15T11:12:36.578Z,7.97
2023-03-15T11:13:36.538Z,7.80
2023-03-15T11:14:36.538Z,7.61
2023-03-15T11:15:36.591Z,7.66
2023-03-15T11:16:36.468Z,7.56
2023-03-15T11:17:36.375Z,7.58
2023-03-15T11:18:36.347Z,7.51
2023-03-15T11:19:36.324Z,7.63
2023-03-15T11:20:36.302Z,7.60
2023-03-15T11:21:36.328Z,7.60
2023-03-15T11:22:36.203Z,7.58
2023-03-15T11:23:36.186Z,7.56
2023-03-15T11:24:36.221Z,7.75
2023-03-15T11:25:36.117Z,7.77
2023-03-15T11:26:36.143Z,7.87
2023-03-15T11:27:36.036Z,8.06
2023-03-15T11:28:36.007Z,8.10
2023-03-15T11:29:35.993Z,8.31
2023-03-15T11:30:35.931Z,8.31
2023-03-15T11:31:36.000Z,8.49
2023-03-15T11:32:35.916Z,8.60
2023-03-15T11:33:35.833Z,8.74
2023-03-15T11:34:35.808Z,8.76
2023-03-15T11:35:35.875Z,8.66
2023-03-15T11:36:35.719Z,8.79
2023-03-15T11:37:35.752Z,8.78
2023-03-15T11:38:35.664Z,8.85
2023-03-15T11:39:35.622Z,8.91
2023-03-15T11:40:35.605Z,8.70
2023-03-15T11:41:35.567Z,8.66
2023-03-15T11:42:35.531Z,8.52
2023-03-15T11:43:35.575Z,8.58
2023-03-15T11:44:35.461Z,8.44
2023-03-15T11:45:35.478Z,8.52
2023-03-15T11:46:35.461Z,8.48
2023-03-15T11:47:35.353Z,8.44
2023-03-15T11:48:35.311Z,8.42
2023-03-15T11:49:35.283Z,8.44
2023-03-15T11:50:35.244Z,8.46
2023-03-15T11:51:35.325Z,8.42
2023-03-15T11:52:35.184Z,8.36
2023-03-15T11:53:35.147Z,8.19
2023-03-15T11:54:35.118Z,8.00
2023-03-15T11:55:35.104Z,7.73
2023-03-15T11:56:35.050Z,7.66
2023-03-15T11:57:35.116Z,7.61
2023-03-15T11:58:35.010Z,7.57
2023-03-15T11:59:35.058Z,7.63
2023-03-15T12:00:34.928Z,7.61
2023-03-15T12:01:34.882Z,7.69
2023-03-15T12:02:34.957Z,7.73
2023-03-15T12:03:34.942Z,7.54
2023-03-15T12:04:34.775Z,7.53
2023-03-15T12:05:34.760Z,7.53
2023-03-15T12:06:34.708Z,7.51
2023-03-15T12:07:34.674Z,7.47
2023-03-15T12:08:34.699Z,7.56
2023-03-15T12:09:34.674Z,7.66
2023-03-15T12:10:34.566Z,7.70
2023-03-15T12:11:34.530Z,7.85
2023-03-15T12:12:34.498Z,7.79
2023-03-15T12:13:34.476Z,7.97
2023-03-15T12:14:34.426Z,7.98
2023-03-15T12:15:34.460Z,8.06
2023-03-15T12:16:34.435Z,8.13
2023-03-15T12:17:36.273Z,8.10
2023-03-15T12:18:34.294Z,8.13
2023-03-15T12:19:34.260Z,8.09
2023-03-15T12:20:34.219Z,8.15
2023-03-15T12:21:34.255Z,8.12
2023-03-15T12:22:34.163Z,8.12
2023-03-15T12:23:34.118Z,8.15
2023-03-15T12:24:34.086Z,8.06
2023-03-15T12:25:39.514Z,8.08
2023-03-15T12:26:34.031Z,8.13
2023-03-15T12:27:34.037Z,8.24
2023-03-15T12:28:34.009Z,8.19
2023-03-15T12:29:33.915Z,8.34
2023-03-15T12:30:33.926Z,8.36
2023-03-15T12:31:33.842Z,8.31
2023-03-15T12:32:33.886Z,8.28
2023-03-15T12:33:33.822Z,8.28
2023-03-15T12:34:33.735Z,8.42
2023-03-15T12:35:33.707Z,8.58
2023-03-15T12:36:33.670Z,8.60
2023-03-15T12:37:33.697Z,8.41
2023-03-15T12:38:33.591Z,8.33
2023-03-15T12:39:33.608Z,8.15
2023-03-15T12:40:33.528Z,8.13
2023-03-15T12:41:33.490Z,8.18
2023-03-15T12:42:33.472Z,8.15
2023-03-15T12:43:33.449Z,8.13
2023-03-15T12:44:33.407Z,8.08
2023-03-15T12:45:34.141Z,8.10
2023-03-15T12:46:33.468Z,8.13
2023-03-15T12:47:33.285Z,8.15
2023-03-15T12:48:33.283Z,8.27
2023-03-15T12:49:33.213Z,8.20
2023-03-15T12:50:33.180Z,8.06
2023-03-15T12:51:33.201Z,8.05
2023-03-15T12:52:33.119Z,8.09
2023-03-15T12:53:33.079Z,8.00
2023-03-15T12:54:33.030Z,7.83
2023-03-15T12:55:33.009Z,7.73
2023-03-15T12:56:32.971Z,7.79
2023-03-15T12:57:32.988Z,7.77
2023-03-15T12:58:32.900Z,7.76
2023-03-15T12:59:32.870Z,7.82
2023-03-15T13:00:32.846Z,7.82
2023-03-15T13:01:32.834Z,7.77
2023-03-15T13:02:42.745Z,7.70
2023-03-15T13:03:32.836Z,7.57
2023-03-15T13:04:32.696Z,7.66
2023-03-15T13:05:32.694Z,7.67
2023-03-15T13:06:32.627Z,7.77
2023-03-15T13:07:34.875Z,7.85
2023-03-15T13:08:32.615Z,7.88
2023-03-15T13:09:32.755Z,7.93
2023-03-15T13:10:32.781Z,8.01
2023-03-15T13:11:32.758Z,8.10
2023-03-15T13:12:32.431Z,8.12
2023-03-15T13:13:32.383Z,8.34
2023-03-15T13:14:32.445Z,8.31
2023-03-15T13:15:32.335Z,8.46
2023-03-15T13:16:32.288Z,8.63